Terminal Aerodrome Forecast
Issued by NWS Mt. Holly, NJ

Home | Current Version | Previous Version | Text Only | Print | Product List | Glossary On
Versions: 1 2 3 4 5 6 7 8 9 10 11 12 13 14 15 16 17
000
FTUS41 KPHI 241141
TAFABE
TAF
KABE 241141Z 2412/2512 28009G20KT P6SM VCSH OVC040
     FM241400 29011G22KT P6SM BKN040
     FM242300 31008KT P6SM SCT200
     FM250600 32005KT P6SM BKN150=

USA.gov is the U.S. government's official web portal to all federal, state and local government web resources and services.